Time;durP1;ratioP1;P1;durP2;ratioP2;P2;SDS_P1;SDS_P2;PMS_P1;PMS_P2;Temp;Humidity;BMP_temperature;BMP_pressure;BME280_temperature;BME280_humidity;BME280_pressure;Samples;Min_cycle;Max_cycle;Signal;HPM_P1;HPM_P2
2022/10/08 00:02:41;;;;;;;5.95;1.05;;;;;;;;;;6224207;23;20015;-91
2022/10/08 00:05:28;;;;;;;6.20;1.00;;;;;;;;;;6247247;23;20015;-93
2022/10/08 00:08:15;;;;;;;3.03;1.17;;;;;;;;;;6223566;23;20103;-91
2022/10/08 00:11:09;;;;;;;7.15;1.23;;;;;;;;;;6223721;23;20010;-93
2022/10/08 00:14:00;;;;;;;4.88;1.45;;;;;;;;;;6223596;23;20066;-91
2022/10/08 00:16:46;;;;;;;5.43;1.58;;;;;;;;;;6224336;23;20130;-90
2022/10/08 00:19:39;;;;;;;4.13;1.42;;;;;;;;;;6224814;23;20031;-92
2022/10/08 00:22:35;;;;;;;5.05;1.27;;;;;;;;;;6203519;23;20067;-92
2022/10/08 00:25:22;;;;;;;4.15;1.25;;;;;;;;;;6223975;23;20343;-91
2022/10/08 00:28:13;;;;;;;4.88;1.17;;;;;;;;;;6223255;23;20053;-90
2022/10/08 00:31:05;;;;;;;2.05;0.95;;;;;;;;;;6223539;23;20011;-93
2022/10/08 00:34:01;;;;;;;2.25;1.00;;;;;;;;;;6223950;23;20347;-92
2022/10/08 00:36:55;;;;;;;1.63;1.00;;;;;;;;;;6224059;23;20100;-91
2022/10/08 00:39:46;;;;;;;5.53;1.15;;;;;;;;;;6223701;23;20027;-91
2022/10/08 00:42:31;;;;;;;6.32;1.05;;;;;;;;;;6223860;23;20044;-91
2022/10/08 00:45:36;;;;;;;1.83;1.05;;;;;;;;;;6223212;23;20027;-92
2022/10/08 00:48:43;;;;;;;2.67;1.25;;;;;;;;;;6223806;23;20327;-91
2022/10/08 00:51:33;;;;;;;1.95;0.95;;;;;;;;;;6223541;23;20011;-91
2022/10/08 00:54:18;;;;;;;3.92;1.08;;;;;;;;;;6223051;23;20031;-92
2022/10/08 00:57:25;;;;;;;4.63;1.00;;;;;;;;;;6223130;23;20047;-92
2022/10/08 01:01:03;;;;;;;3.53;1.13;;;;;;;;;;6223513;23;20031;-93
2022/10/08 01:03:51;;;;;;;1.83;1.02;;;;;;;;;;6080728;23;20421;-91
2022/10/08 01:06:54;;;;;;;2.15;1.25;;;;;;;;;;6223820;23;20015;-90
2022/10/08 01:09:55;;;;;;;1.92;0.98;;;;;;;;;;6223865;23;20015;-92
2022/10/08 01:13:00;;;;;;;1.48;1.17;;;;;;;;;;6223916;23;20035;-93
2022/10/08 01:15:48;;;;;;;;;;;12.50;99.90;;;;;;6223759;23;20059;-88
2022/10/08 01:19:01;;;;;;;4.20;1.05;;;12.30;99.90;;;;;;6223363;23;20384;-88
2022/10/08 01:22:06;;;;;;;2.50;0.77;;;;;;;;;;6245858;23;20449;-89
2022/10/08 01:28:11;;;;;;;2.55;0.90;;;;;;;;;;6245883;23;20019;-88
2022/10/08 01:30:59;;;;;;;3.72;0.80;;;;;;;;;;6223171;23;20094;-87
2022/10/08 01:33:49;;;;;;;0.95;0.63;;;;;;;;;;6223054;23;20019;-86
2022/10/08 01:36:37;;;;;;;1.00;0.70;;;;;;;;;;6245681;23;20014;-87
2022/10/08 01:39:25;;;;;;;2.25;0.70;;;;;;;;;;6244853;23;20108;-86
2022/10/08 01:42:11;;;;;;;3.05;1.10;;;;;;;;;;6201129;23;20019;-87
2022/10/08 01:45:01;;;;;;;4.00;0.95;;;;;;;;;;6245091;23;20505;-87
2022/10/08 01:47:46;;;;;;;0.93;0.70;;;;;;;;;;6222902;23;20011;-86
2022/10/08 01:50:37;;;;;;;4.18;0.82;;;;;;;;;;6245530;23;20015;-87
2022/10/08 01:53:25;;;;;;;1.85;0.77;;;;;;;;;;6221934;23;20090;-86
2022/10/08 01:56:12;;;;;;;1.75;0.90;;;;;;;;;;6244853;23;20030;-87
2022/10/08 01:59:06;;;;;;;2.28;0.90;;;;;;;;;;6245155;23;20098;-87
2022/10/08 02:01:50;;;;;;;3.67;0.85;;;;;;;;;;6222659;23;20011;-87
2022/10/08 02:04:36;;;;;;;5.45;0.93;;;;;;;;;;6222884;23;20019;-87
2022/10/08 02:07:27;;;;;;;2.65;0.90;;;;;;;;;;6201177;23;20066;-87
2022/10/08 02:10:20;;;;;;;1.25;0.90;;;;;;;;;;6243762;23;20015;-87
2022/10/08 02:13:08;;;;;;;2.20;0.87;;;;;;;;;;6222400;23;20012;-87
2022/10/08 02:15:52;;;;;;;3.10;1.05;;;;;;;;;;6222380;23;20091;-87
2022/10/08 02:18:40;;;;;;;5.93;1.00;;;;;;;;;;6222651;23;20015;-87
2022/10/08 02:21:27;;;;;;;1.70;0.93;;;;;;;;;;6221870;23;20092;-87
2022/10/08 02:24:16;;;;;;;2.25;1.17;;;;;;;;;;6244763;23;20069;-87
2022/10/08 02:27:04;;;;;;;2.00;0.90;;;;;;;;;;6222531;23;20070;-87
2022/10/08 02:29:57;;;;;;;2.00;1.20;;;;;;;;;;6222459;23;20015;-87
2022/10/08 02:32:58;;;;;;;1.13;0.77;;;;;;;;;;6222509;23;20099;-87
2022/10/08 02:35:46;;;;;;;1.85;0.98;;;;;;;;;;6222256;23;20035;-87
2022/10/08 02:38:42;;;;;;;2.88;1.20;;;;;;;;;;6244462;23;20014;-87
2022/10/08 02:41:31;;;;;;;2.20;1.17;;;;;;;;;;6221721;23;20054;-87
2022/10/08 02:44:20;;;;;;;2.17;1.20;;;;;;;;;;6221530;23;20019;-87
2022/10/08 02:47:05;;;;;;;1.80;1.17;;;;;;;;;;6222373;23;20058;-86
2022/10/08 02:49:53;;;;;;;5.72;1.75;;;;;;;;;;6222380;23;20055;-87
2022/10/08 02:52:39;;;;;;;2.28;0.98;;;;;;;;;;6221669;23;20086;-86
2022/10/08 02:56:04;;;;;;;1.33;0.80;;;11.80;99.90;;;;;;6221410;23;20019;-86
2022/10/08 02:58:49;;;;;;;1.45;0.90;;;;;;;;;;6222035;23;20022;-86
2022/10/08 03:01:38;;;;;;;1.90;1.13;;;;;;;;;;6244239;23;20618;-87
2022/10/08 03:04:36;;;;;;;2.05;0.90;;;;;;;;;;6221371;23;20019;-88
2022/10/08 03:07:21;;;;;;;4.95;0.90;;;;;;;;;;6221657;23;20437;-87
2022/10/08 03:10:06;;;;;;;1.83;1.00;;;;;;;;;;6222132;23;20058;-88
2022/10/08 03:12:53;;;;;;;3.50;1.52;;;;;;;;;;6222092;23;20054;-87
2022/10/08 03:15:40;;;;;;;3.90;1.02;;;;;;;;;;6221561;23;20019;-87
2022/10/08 03:18:25;;;;;;;2.50;1.17;;;;;;;;;;6244053;23;20014;-87
2022/10/08 03:21:12;;;;;;;10.48;1.35;;;;;;;;;;6222273;23;20335;-86
2022/10/08 03:23:57;;;;;;;2.05;1.02;;;;;;;;;;6222300;23;20099;-86
2022/10/08 03:26:41;;;;;;;1.60;0.90;;;;;;;;;;6221658;23;20085;-86
2022/10/08 03:29:27;;;;;;;1.58;0.90;;;;;;;;;;6213811;23;20027;-87
2022/10/08 03:32:12;;;;;;;2.80;1.00;;;;;;;;;;6191956;23;20344;-86
2022/10/08 03:34:56;;;;;;;3.22;1.10;;;;;;;;;;6192096;23;20051;-86
2022/10/08 03:37:41;;;;;;;2.80;1.27;;;;;;;;;;6191295;23;20063;-88
2022/10/08 03:40:25;;;;;;;3.53;1.25;;;;;;;;;;6170244;23;20092;-87
2022/10/08 03:43:10;;;;;;;6.43;1.27;;;;;;;;;;6192034;23;20016;-86
2022/10/08 03:45:55;;;;;;;1.55;0.88;;;;;;;;;;6191826;23;20058;-87
2022/10/08 03:48:39;;;;;;;3.35;1.10;;;;;;;;;;6170418;23;20321;-87
2022/10/08 03:51:24;;;;;;;1.75;1.05;;;;;;;;;;6213764;23;20011;-87
2022/10/08 03:54:08;;;;;;;2.50;0.80;;;;;;;;;;6191724;23;20016;-87
2022/10/08 03:56:53;;;;;;;1.83;0.98;;;;;;;;;;6171299;23;20020;-87
2022/10/08 03:59:38;;;;;;;1.40;1.00;;;;;;;;;;6191594;23;20019;-87
2022/10/08 04:02:22;;;;;;;2.20;1.10;;;;;;;;;;6170623;23;20024;-87
2022/10/08 04:05:07;;;;;;;5.85;1.08;;;;;;;;;;6191910;23;20070;-86
2022/10/08 04:07:52;;;;;;;1.50;0.88;;;;;;;;;;6172327;23;20070;-87
2022/10/08 04:10:37;;;;;;;2.22;1.13;;;;;;;;;;6193063;23;20015;-86
2022/10/08 04:13:22;;;;;;;2.35;1.00;;;;;;;;;;6193989;23;20099;-87
2022/10/08 04:16:14;;;;;;;4.85;1.40;;;;;;;;;;6172770;23;20051;-86
2022/10/08 04:18:59;;;;;;;2.70;1.23;;;;;;;;;;6193739;23;20055;-86
2022/10/08 04:21:43;;;;;;;2.13;1.10;;;;;;;;;;6192827;23;20015;-87
2022/10/08 04:24:28;;;;;;;2.13;0.90;;;;;;;;;;6172152;23;20023;-86
2022/10/08 04:27:15;;;;;;;7.78;1.20;;;;;;;;;;6172719;23;20024;-87
2022/10/08 04:30:00;;;;;;;4.78;1.15;;;;;;;;;;6173176;23;20020;-86
2022/10/08 04:32:44;;;;;;;9.60;1.20;;;;;;;;;;6215408;23;20039;-87
2022/10/08 04:35:29;;;;;;;2.85;1.25;;;;;;;;;;6171687;23;20018;-86
2022/10/08 04:38:14;;;;;;;7.75;1.40;;;;;;;;;;6193408;23;20099;-88
2022/10/08 04:41:05;;;;;;;1.88;1.00;;;;;;;;;;6193361;23;20387;-86
2022/10/08 04:43:49;;;;;;;5.80;1.20;;;;;;;;;;6192658;23;20058;-86
2022/10/08 04:46:34;;;;;;;1.88;1.13;;;;;;;;;;6192701;23;20016;-86
2022/10/08 04:49:20;;;;;;;2.35;1.05;;;;;;;;;;6193248;23;20015;-87
2022/10/08 04:52:05;;;;;;;2.75;1.30;;;;;;;;;;6193021;23;20051;-87
2022/10/08 04:54:50;;;;;;;2.88;1.40;;;;;;;;;;6192739;23;20546;-86
2022/10/08 04:57:35;;;;;;;5.30;1.45;;;;;;;;;;6171815;23;20047;-87
2022/10/08 05:00:19;;;;;;;2.10;1.00;;;;;;;;;;6216073;23;20027;-86
2022/10/08 05:03:04;;;;;;;1.95;1.20;;;;;;;;;;6193614;23;20015;-86
2022/10/08 05:05:48;;;;;;;7.85;0.98;;;;;;;;;;6172005;23;20023;-87
2022/10/08 05:08:33;;;;;;;3.78;1.13;;;;;;;;;;6172187;23;20496;-87
2022/10/08 05:11:18;;;;;;;7.55;1.30;;;;;;;;;;6172420;23;20019;-87
2022/10/08 05:14:03;;;;;;;3.25;1.13;;;;;;;;;;6192978;23;20020;-86
2022/10/08 05:16:48;;;;;;;3.75;1.00;;;;;;;;;;6171668;23;20506;-87
2022/10/08 05:19:34;;;;;;;4.38;1.30;;;;;;;;;;6171986;23;20032;-87
2022/10/08 05:22:19;;;;;;;4.60;1.20;;;;;;;;;;6172705;23;20054;-87
2022/10/08 05:25:03;;;;;;;3.80;1.23;;;;;;;;;;6172133;23;20019;-87
2022/10/08 05:27:48;;;;;;;3.28;1.13;;;;;;;;;;6192307;23;20067;-86
2022/10/08 05:30:32;;;;;;;2.92;1.25;;;;;;;;;;6172011;23;20031;-88
2022/10/08 05:33:17;;;;;;;1.65;0.90;;;;;;;;;;6193150;23;20074;-86
2022/10/08 05:36:02;;;;;;;8.18;1.42;;;;;;;;;;6172221;23;20454;-87
2022/10/08 05:38:47;;;;;;;3.17;0.80;;;;;;;;;;6192097;23;20043;-86
2022/10/08 05:41:36;;;;;;;2.90;0.82;;;;;;;;;;6192438;23;20015;-87
2022/10/08 05:44:21;;;;;;;1.70;0.98;;;;;;;;;;6217338;23;20034;-86
2022/10/08 05:47:05;;;;;;;2.40;1.13;;;;;;;;;;6194305;23;20015;-84
2022/10/08 05:49:50;;;;;;;3.53;0.80;;;;;;;;;;6171360;23;20090;-86
2022/10/08 05:52:34;;;;;;;1.65;0.75;;;;;;;;;;6206505;23;20053;-85
2022/10/08 05:55:19;;;;;;;1.92;1.00;;;;;;;;;;6232630;23;20078;-86
2022/10/08 05:58:04;;;;;;;2.42;1.00;;;;;;;;;;6192780;23;20070;-86
2022/10/08 06:00:56;;;;;;;4.20;1.35;;;;;;;;;;6214735;23;20497;-86
2022/10/08 06:03:41;;;;;;;7.70;1.30;;;;;;;;;;6214659;23;20019;-87
2022/10/08 06:06:26;;;;;;;2.17;1.15;;;;;;;;;;6193388;23;20015;-86
2022/10/08 06:09:15;;;;;;;2.75;1.00;;;;;;;;;;6192358;23;20011;-87
2022/10/08 06:12:00;;;;;;;2.22;1.02;;;;;;;;;;6191772;23;20571;-87
2022/10/08 06:14:44;;;;;;;4.20;1.00;;;;;;;;;;6191299;23;20039;-86
2022/10/08 06:17:29;;;;;;;3.53;0.70;;;;;;;;;;6171354;23;20458;-86
2022/10/08 06:20:14;;;;;;;1.15;0.70;;;;;;;;;;6192023;23;20012;-86
2022/10/08 06:22:58;;;;;;;3.63;0.95;;;;;;;;;;6191586;23;20442;-86
2022/10/08 06:25:43;;;;;;;1.25;0.80;;;;;;;;;;6170665;23;20062;-87
2022/10/08 06:28:27;;;;;;;2.05;1.20;;;;;;;;;;6192107;23;20027;-86
2022/10/08 06:31:12;;;;;;;3.60;0.85;;;;;;;;;;6171431;23;20416;-86
2022/10/08 06:33:57;;;;;;;10.90;1.30;;;;;;;;;;6191092;23;20019;-86
2022/10/08 06:36:42;;;;;;;1.63;1.00;;;;;;;;;;6191829;23;20028;-86
2022/10/08 06:39:29;;;;;;;6.97;1.10;;;;;;;;;;6214753;23;20063;-85
2022/10/08 06:42:13;;;;;;;3.83;0.98;;;;;;;;;;6214669;23;20066;-86
2022/10/08 06:44:58;;;;;;;0.70;0.70;;;;;;;;;;6191481;23;20066;-87
2022/10/08 06:47:43;;;;;;;3.60;0.98;;;;;;;;;;6192235;23;20019;-85
2022/10/08 06:50:27;;;;;;;4.10;1.00;;;;;;;;;;6192066;23;20074;-85
2022/10/08 06:53:12;;;;;;;8.93;1.05;;;;;;;;;;6192326;23;20055;-85
2022/10/08 06:56:00;;;;;;;1.63;0.80;;;;;;;;;;6191508;23;20023;-85
2022/10/08 06:58:46;;;;;;;4.97;1.20;;;;;;;;;;6191489;23;20070;-85
2022/10/08 07:01:30;;;;;;;3.10;1.10;;;;;;;;;;6171482;23;20019;-85
2022/10/08 07:04:15;;;;;;;1.38;0.80;;;;;;;;;;6171177;23;20024;-86
2022/10/08 07:06:59;;;;;;;1.42;0.90;;;;;;;;;;6191607;23;20128;-89
2022/10/08 07:09:44;;;;;;;3.92;1.13;;;;;;;;;;6172619;23;20019;-87
2022/10/08 07:12:29;;;;;;;3.33;1.20;;;;;;;;;;6192517;23;20035;-85
2022/10/08 07:15:16;;;;;;;1.90;0.82;;;;;;;;;;6171526;23;20090;-86
2022/10/08 07:18:01;;;;;;;2.85;1.50;;;;;;;;;;6191789;23;20340;-87
2022/10/08 07:20:53;;;;;;;5.22;1.23;;;;;;;;;;6191793;23;20070;-87
2022/10/08 07:23:38;;;;;;;5.18;0.98;;;;;;;;;;6191809;23;20018;-86
2022/10/08 07:26:25;;;;;;;4.43;0.80;;;;;;;;;;6214665;23;20489;-86
2022/10/08 07:29:14;;;;;;;5.45;1.10;;;;;;;;;;6191336;23;20063;-86
2022/10/08 07:31:59;;;;;;;5.63;1.23;;;;;;;;;;6191198;23;20066;-86
2022/10/08 07:34:43;;;;;;;3.70;0.90;;;;;;;;;;6191710;23;20055;-85
2022/10/08 07:37:30;;;;;;;7.85;1.10;;;;;;;;;;6191711;23;20024;-88
2022/10/08 07:40:15;;;;;;;3.53;0.82;;;;;;;;;;6191248;23;20016;-87
2022/10/08 07:43:01;;;;;;;0.98;0.70;;;;;;;;;;6193148;23;20012;-87
2022/10/08 07:45:46;;;;;;;3.20;0.90;;;;;;;;;;6193762;23;20015;-86
2022/10/08 07:48:30;;;;;;;2.90;0.88;;;;;;;;;;6193688;23;20512;-88
2022/10/08 07:51:16;;;;;;;5.20;0.90;;;;;;;;;;6215763;23;20449;-87
2022/10/08 07:54:02;;;;;;;1.35;0.65;;;;;;;;;;6193085;23;20074;-88
2022/10/08 07:56:47;;;;;;;2.28;0.80;;;;;;;;;;6216289;23;20015;-87
2022/10/08 07:59:32;;;;;;;3.47;1.20;;;;;;;;;;6193868;23;20096;-87
2022/10/08 08:02:17;;;;;;;2.63;1.05;;;;;;;;;;6193130;23;20070;-87
2022/10/08 08:05:04;;;;;;;6.65;1.10;;;;;;;;;;6196776;23;20019;-89
2022/10/08 08:07:52;;;;;;;2.50;0.75;;;;;;;;;;6199079;23;20015;-88
2022/10/08 08:10:39;;;;;;;1.77;0.73;;;;;;;;;;6194307;23;20493;-88
2022/10/08 08:13:24;;;;;;;0.60;0.60;;;;;;;;;;6193828;23;20059;-88
2022/10/08 08:16:18;;;;;;;3.75;1.00;;;;;;;;;;6193057;23;20014;-89
2022/10/08 08:19:03;;;;;;;;;;;17.90;99.90;;;;;;6215991;23;20059;-89
2022/10/08 08:22:13;;;;;;;;;;;18.20;99.90;;;;;;6216710;23;19923;-89
2022/10/08 08:24:58;;;;;;;2.40;0.70;;;;;;;;;;6193307;23;19942;-89
2022/10/08 08:27:43;;;;;;;2.53;0.82;;;;;;;;;;6193761;23;20062;-89
2022/10/08 08:33:32;;;;;;;4.45;1.10;;;;;;;;;;6215975;23;20055;-88
2022/10/08 08:36:18;;;;;;;2.03;0.60;;;;;;;;;;6193315;23;20016;-90
2022/10/08 08:39:31;;;;;;;;;;;;;;;;;;;;;
2022/10/08 08:42:40;;;;;;;;;;;;;;;;;;;;;
2022/10/08 08:45:25;;;;;;;2.38;0.60;;;;;;;;;;6215610;23;20497;-89
2022/10/08 08:48:47;;;;;;;;;;;;;;;;;;;;;
2022/10/08 08:51:31;;;;;;;3.55;0.80;;;;;;;;;;6215474;23;20023;-89
2022/10/08 08:54:38;;;;;;;5.43;0.85;;;;;;;;;;6192575;23;20019;-91
2022/10/08 08:58:05;;;;;;;2.42;0.70;;;;;;;;;;6193188;23;20027;-90
2022/10/08 09:01:13;;;;;;;2.45;0.70;;;;;;;;;;6142296;23;20023;-89
2022/10/08 09:07:54;;;;;;;1.73;0.60;;;;;;;;;;6194655;23;20100;-91
2022/10/08 09:11:07;;;;;;;2.35;0.73;;;;;;;;;;6195113;23;20015;-92
2022/10/08 09:13:56;;;;;;;2.05;0.90;;;;;;;;;;6194165;23;20144;-92
2022/10/08 09:17:07;;;;;;;3.83;0.70;;;;;;;;;;6196053;23;20469;-94
2022/10/08 09:19:54;;;;;;;4.00;1.65;;;;;;;;;;6195156;23;20016;-89
2022/10/08 09:23:15;;;;;;;1.20;0.80;;;;;;;;;;6194627;23;20015;-95
2022/10/08 09:26:12;;;;;;;1.75;0.63;;;;;;;;;;6185530;23;20027;-94
2022/10/08 09:29:02;;;;;;;1.33;0.70;;;;;;;;;;6165559;23;20016;-90
2022/10/08 09:32:19;;;;;;;2.72;1.15;;;;;;;;;;6164948;23;20016;-92
2022/10/08 09:35:09;;;;;;;0.70;0.60;;;;;;;;;;6140943;23;20024;-92
2022/10/08 09:38:04;;;;;;;4.45;0.60;;;;;;;;;;6166120;23;20020;-92
2022/10/08 09:52:06;;;;;;;1.58;0.50;;;;;;;;;;6006966;23;20381;-93
2022/10/08 09:58:48;;;;;;;2.83;0.70;;;;;;;;;;5953081;24;20031;-92
2022/10/08 10:02:12;;;;;;;;;;;;;;;;;;;;;
2022/10/08 10:05:46;;;;;;;10.40;1.05;;;;;;;;;;5976707;24;20068;-95
2022/10/08 10:09:06;;;;;;;1.73;0.70;;;;;;;;;;5901169;24;20016;-93
2022/10/08 10:23:51;;;;;;;;;;;;;;;;;;;;;
2022/10/08 10:27:05;;;;;;;2.72;0.73;;;;;;;;;;5956084;24;20028;-92
2022/10/08 10:30:34;;;;;;;1.38;0.63;;;;;;;;;;5912469;24;20020;-96
2022/10/08 10:37:36;;;;;;;0.50;0.50;;;;;;;;;;6000348;23;20030;-94
2022/10/08 10:40:37;;;;;;;2.72;0.60;;;;;;;;;;6010355;23;20046;-93
2022/10/08 10:43:59;;;;;;;;;;;;;;;;;;;;;
2022/10/08 10:47:19;;;;;;;1.85;0.70;;;;;;;;;;6011513;23;20022;-95
2022/10/08 10:50:56;;;;;;;;;;;;;;;;;;;;;
2022/10/08 10:54:08;;;;;;;;;;;;;;;;;;;;;
2022/10/08 10:57:36;;;;;;;;;;;;;;;;;;;;;
2022/10/08 11:21:12;;;;;;;1.90;0.93;;;;;;;;;;6096768;23;20062;-93
2022/10/08 11:28:38;;;;;;;;;;;;;;;;;;;;;
2022/10/08 11:32:34;;;;;;;2.50;0.60;;;16.90;96.80;;;;;;6097137;23;20026;-95
2022/10/08 11:42:27;;;;;;;;;;;;;;;;;;;;;
2022/10/08 11:48:39;;;;;;;1.83;0.60;;;;;;;;;;6174360;23;20019;-94
2022/10/08 11:51:23;;;;;;;5.30;0.80;;;;;;;;;;6192576;23;20015;-93
2022/10/08 11:58:19;;;;;;;;;;;;;;;;;;;;;
2022/10/08 12:01:34;;;;;;;4.72;0.75;;;;;;;;;;6185582;23;20027;-93
2022/10/08 12:04:55;;;;;;;8.05;1.38;;;;;;;;;;6195108;23;20031;-90
2022/10/08 12:08:11;;;;;;;;;;;;;;;;;;;;;
2022/10/08 12:11:19;;;;;;;3.15;1.08;;;;;;;;;;6186386;23;20080;-92
2022/10/08 12:14:25;;;;;;;1.40;0.80;;;;;;;;;;6163704;23;20025;-94
2022/10/08 12:17:16;;;;;;;1.23;0.70;;;;;;;;;;6172768;23;20012;-93
2022/10/08 12:20:44;;;;;;;;;;;;;;;;;;;;;
2022/10/08 12:23:38;;;;;;;1.95;0.90;;;;;;;;;;6190929;23;20014;-95
2022/10/08 12:26:24;;;;;;;;;;;17.20;97.10;;;;;;6192799;23;20454;-92
2022/10/08 12:29:26;;;;;;;4.57;0.90;;;;;;;;;;6194184;23;19910;-91
2022/10/08 12:32:10;;;;;;;5.07;0.73;;;;;;;;;;6217275;23;20035;-93
2022/10/08 12:38:38;;;;;;;1.20;0.68;;;;;;;;;;6194328;23;20391;-95
2022/10/08 12:41:29;;;;;;;1.75;0.60;;;;;;;;;;6194132;23;20054;-91
2022/10/08 12:44:32;;;;;;;1.45;0.90;;;;;;;;;;6193847;23;20047;-96
2022/10/08 12:47:44;;;;;;;4.75;0.88;;;;;;;;;;6193993;23;20015;-92
2022/10/08 12:50:36;;;;;;;2.30;0.80;;;;;;;;;;6194325;23;20336;-92
2022/10/08 12:53:24;;;;;;;6.43;0.88;;;;;;;;;;6195112;23;20011;-91
2022/10/08 12:56:16;;;;;;;1.65;0.73;;;;;;;;;;6194543;23;20058;-89
2022/10/08 12:59:24;;;;;;;;;;;;;;;;;;;;;
2022/10/08 13:02:35;;;;;;;3.00;0.75;;;;;;;;;;6217231;23;20043;-93
2022/10/08 13:05:25;;;;;;;2.97;0.68;;;;;;;;;;6187288;23;20039;-93
2022/10/08 13:08:39;;;;;;;2.97;0.75;;;;;;;;;;6187022;23;20450;-96
2022/10/08 13:11:33;;;;;;;2.58;0.75;;;;;;;;;;6187570;23;20036;-95
2022/10/08 13:14:34;;;;;;;5.97;0.63;;;;;;;;;;6186104;23;20020;-92
2022/10/08 13:17:52;;;;;;;4.00;1.92;;;;;;;;;;6184774;23;20056;-96
2022/10/08 13:20:39;;;;;;;5.10;0.68;;;;;;;;;;6178010;23;20016;-92
2022/10/08 13:23:45;;;;;;;3.10;0.60;;;;;;;;;;6188566;23;20435;-93
2022/10/08 13:26:37;;;;;;;3.25;0.70;;;;;;;;;;6186850;23;20064;-96
2022/10/08 13:29:30;;;;;;;1.75;0.70;;;;;;;;;;6188641;23;20475;-95
2022/10/08 13:32:17;;;;;;;4.97;0.70;;;;;;;;;;6188014;23;20016;-95
2022/10/08 13:35:04;;;;;;;0.50;0.50;;;;;;;;;;6187412;23;20090;-96
2022/10/08 13:37:58;;;;;;;3.10;0.60;;;;;;;;;;6187984;23;20016;-94
2022/10/08 13:41:27;;;;;;;1.00;0.80;;;;;;;;;;6185466;23;20088;-94
2022/10/08 13:44:12;;;;;;;4.35;0.90;;;;;;;;;;6189034;23;20092;-92
2022/10/08 13:47:00;;;;;;;3.55;0.85;;;;;;;;;;6166563;23;20043;-95
2022/10/08 13:49:59;;;;;;;;;;;;;;;;;;;;;
2022/10/08 13:56:23;;;;;;;3.63;0.80;;;;;;;;;;6176308;23;20020;-94
2022/10/08 13:59:21;;;;;;;;;;;;;;;;;;;;;
2022/10/08 14:02:06;;;;;;;2.42;0.80;;;;;;;;;;6186554;23;20040;-95
2022/10/08 14:05:06;;;;;;;1.75;0.73;;;;;;;;;;6188368;23;20078;-92
2022/10/08 14:08:01;;;;;;;2.92;0.75;;;;;;;;;;6173915;23;20019;-92
2022/10/08 14:10:56;;;;;;;2.35;0.70;;;;;;;;;;6194302;23;20084;-95
2022/10/08 14:13:41;;;;;;;3.60;0.90;;;;;;;;;;6194588;23;20446;-94
2022/10/08 14:16:55;;;;;;;2.50;0.60;;;;;;;;;;6216772;23;20020;-93
2022/10/08 14:19:52;;;;;;;2.67;0.63;;;;;;;;;;6218070;23;20454;-93
2022/10/08 14:22:45;;;;;;;5.88;0.80;;;;;;;;;;6193494;23;20054;-93
2022/10/08 14:25:33;;;;;;;9.20;1.85;;;;;;;;;;6174537;23;20115;-95
2022/10/08 14:28:17;;;;;;;2.70;0.82;;;;;;;;;;6195079;23;20054;-95
2022/10/08 14:31:04;;;;;;;2.47;0.65;;;;;;;;;;6194347;23;20066;-93
2022/10/08 14:33:51;;;;;;;2.35;0.90;;;;;;;;;;6193684;23;20011;-93
2022/10/08 14:36:57;;;;;;;3.00;0.75;;;;;;;;;;6172561;23;20092;-93
2022/10/08 14:39:47;;;;;;;5.40;0.77;;;;;;;;;;6193630;23;20015;-94
2022/10/08 14:42:53;;;;;;;0.90;0.70;;;;;;;;;;6175131;23;20056;-95
2022/10/08 14:45:44;;;;;;;3.00;0.82;;;;;;;;;;6216732;23;20047;-95
2022/10/08 14:48:29;;;;;;;1.83;0.82;;;;;;;;;;6195431;23;20011;-95
2022/10/08 14:51:37;;;;;;;5.10;0.95;;;;;;;;;;6193369;23;20030;-92
2022/10/08 14:54:31;;;;;;;1.50;0.60;;;;;;;;;;6194770;23;20024;-93
2022/10/08 14:57:23;;;;;;;2.47;0.80;;;;;;;;;;6193540;23;20045;-95
2022/10/08 15:00:08;;;;;;;3.72;0.90;;;;;;;;;;6192408;23;20016;-93
2022/10/08 15:03:16;;;;;;;1.13;0.70;;;;;;;;;;6193106;23;20011;-94
2022/10/08 15:06:05;;;;;;;2.08;0.50;;;;;;;;;;6216658;23;20020;-95
2022/10/08 15:09:19;;;;;;;2.28;0.80;;;;;;;;;;6195701;23;20063;-94
2022/10/08 15:12:14;;;;;;;4.50;1.00;;;;;;;;;;6217709;23;20047;-91
2022/10/08 15:15:02;;;;;;;0.68;0.60;;;;;;;;;;6196212;23;20346;-96
2022/10/08 15:17:47;;;;;;;2.83;1.10;;;;;;;;;;6194887;23;20059;-94
2022/10/08 15:20:36;;;;;;;2.47;0.60;;;;;;;;;;6194758;23;20034;-96
2022/10/08 15:23:24;;;;;;;7.90;1.17;;;;;;;;;;6174333;23;20063;-95
2022/10/08 15:26:21;;;;;;;;;;;;;;;;;;;;;
2022/10/08 15:29:35;;;;;;;4.47;0.73;;;;;;;;;;6220178;23;20059;-94
2022/10/08 15:32:22;;;;;;;1.65;0.80;;;;;;;;;;6201578;23;20023;-94
2022/10/08 15:35:25;;;;;;;5.15;0.70;;;;;;;;;;6196542;23;20104;-95
2022/10/08 15:38:12;;;;;;;5.88;1.00;;;;;;;;;;6197191;23;20489;-94
2022/10/08 15:41:08;;;;;;;3.03;1.20;;;;;;;;;;6218178;23;20112;-93
2022/10/08 15:43:58;;;;;;;2.00;0.77;;;;;;;;;;6174766;23;20016;-96
2022/10/08 15:46:53;;;;;;;3.60;0.82;;;;;;;;;;6194706;23;20027;-93
2022/10/08 15:52:55;;;;;;;1.63;0.73;;;;;;;;;;6176944;23;20020;-94
2022/10/08 15:55:45;;;;;;;1.85;0.70;;;;;;;;;;6194055;23;20071;-95
2022/10/08 15:58:58;;;;;;;1.60;0.95;;;;;;;;;;6218543;23;20020;-94
2022/10/08 16:01:45;;;;;;;4.63;0.90;;;;;;;;;;6195552;23;20465;-94
2022/10/08 16:04:33;;;;;;;2.13;0.60;;;;;;;;;;6196294;23;20054;-94
2022/10/08 16:07:25;;;;;;;2.88;0.80;;;;;;;;;;6194560;23;20027;-95
2022/10/08 16:10:12;;;;;;;1.65;0.60;;;;;;;;;;6195219;23;20446;-95
2022/10/08 16:13:26;;;;;;;5.28;1.25;;;;;;;;;;6195037;23;20063;-94
2022/10/08 16:16:25;;;;;;;;;;;;;;;;;;;;;
2022/10/08 16:19:25;;;;;;;2.20;1.02;;;;;;;;;;6216471;23;20015;-94
2022/10/08 16:22:35;;;;;;;2.17;0.88;;;;;;;;;;6194223;23;20015;-94
2022/10/08 16:25:43;;;;;;;1.98;0.80;;;;;;;;;;6194373;23;20016;-95
2022/10/08 16:32:16;;;;;;;;;;;;;;;;;;;;;
2022/10/08 16:35:11;;;;;;;2.47;0.68;;;;;;;;;;6197677;23;20074;-92
2022/10/08 16:38:05;;;;;;;3.45;0.80;;;;;;;;;;6174404;23;20018;-94
2022/10/08 16:41:15;;;;;;;7.20;1.17;;;;;;;;;;6194494;23;20016;-96
2022/10/08 16:44:41;;;;;;;2.75;0.88;;;;;;;;;;6194135;23;20462;-95
2022/10/08 16:47:32;;;;;;;;;;;13.20;99.90;;;;;;6218121;23;20081;-94
2022/10/08 16:50:52;;;;;;;1.33;0.70;;;;;;;;;;6194153;23;20241;-94
2022/10/08 16:53:45;;;;;;;2.85;0.93;;;;;;;;;;6194834;23;20444;-96
2022/10/08 16:56:37;;;;;;;3.33;0.70;;;;;;;;;;6216719;23;20351;-93
2022/10/08 16:59:45;;;;;;;1.67;0.80;;;;;;;;;;6193866;23;20067;-94
2022/10/08 17:02:59;;;;;;;1.08;0.85;;;;;;;;;;6193686;23;20416;-94
2022/10/08 17:06:01;;;;;;;;;;;;;;;;;;;;;
2022/10/08 17:08:50;;;;;;;1.13;0.82;;;;;;;;;;6186732;23;20015;-94
2022/10/08 17:11:40;;;;;;;4.70;0.70;;;;;;;;;;6185305;23;20012;-95
2022/10/08 17:28:03;;;;;;;1.48;0.80;;;;;;;;;;5598339;22;16529109;-92
2022/10/08 17:31:24;;;;;;;4.50;1.35;;;;;;;;;;6293508;22;20551;-92
2022/10/08 17:37:27;;;;;;;2.67;0.70;;;;;;;;;;6309694;22;20026;-93
2022/10/08 17:40:35;;;;;;;2.42;0.80;;;;;;;;;;6293952;22;20022;-91
2022/10/08 17:43:34;;;;;;;;;;;;;;;;;;;;;
2022/10/08 17:46:44;;;;;;;1.45;1.02;;;;;;;;;;6316014;22;20095;-93
2022/10/08 17:56:01;;;;;;;3.83;1.10;;;;;;;;;;6144773;23;20075;-94
2022/10/08 17:59:14;;;;;;;;;;;;;;;;;;;;;
2022/10/08 18:02:06;;;;;;;3.85;0.60;;;;;;;;;;6316133;22;20076;-94
2022/10/08 18:05:13;;;;;;;2.45;1.25;;;;;;;;;;6293355;22;20376;-95
2022/10/08 18:11:09;;;;;;;0.68;0.65;;;;;;;;;;6268220;22;20014;-94
2022/10/08 18:14:05;;;;;;;2.85;0.93;;;;;;;;;;6293197;22;20010;-95
2022/10/08 18:16:55;;;;;;;1.02;0.77;;;;;;;;;;6316003;22;20059;-94
2022/10/08 18:19:58;;;;;;;7.05;1.13;;;;;;;;;;6292827;22;20060;-94
2022/10/08 18:22:43;;;;;;;6.53;0.95;;;;;;;;;;6292977;22;20053;-94
2022/10/08 18:25:34;;;;;;;1.55;0.82;;;;;;;;;;6292541;22;20091;-95
2022/10/08 18:28:44;;;;;;;3.72;1.00;;;;;;;;;;6286342;22;20456;-95
2022/10/08 18:31:49;;;;;;;3.65;0.70;;;;;;;;;;6286046;22;20057;-95
2022/10/08 18:34:34;;;;;;;3.15;0.65;;;;;;;;;;6286146;22;20092;-94
2022/10/08 18:37:31;;;;;;;;;;;;;;;;;;;;;
2022/10/08 18:40:18;;;;;;;3.10;0.77;;;;;;;;;;6309573;22;20096;-95
2022/10/08 18:43:08;;;;;;;4.90;1.42;;;;;;;;;;6264691;22;20061;-94
2022/10/08 18:46:00;;;;;;;4.70;1.15;;;;;;;;;;6286600;22;20033;-94
2022/10/08 18:48:52;;;;;;;2.47;0.90;;;;;;;;;;6286068;22;20444;-93
2022/10/08 18:51:52;;;;;;;4.40;1.52;;;;;;;;;;6285327;22;20014;-94
2022/10/08 18:54:37;;;;;;;3.85;1.10;;;;;;;;;;6285267;22;20014;-94
2022/10/08 18:57:27;;;;;;;5.43;1.23;;;;;;;;;;6285691;22;20022;-95
2022/10/08 19:00:22;;;;;;;4.38;1.40;;;;;;;;;;6285956;22;20092;-95
2022/10/08 19:03:09;;;;;;;3.08;1.10;;;;;;;;;;6285924;22;20007;-95
2022/10/08 19:06:14;;;;;;;2.33;1.17;;;;;;;;;;6285606;22;20018;-94
2022/10/08 19:09:14;;;;;;;2.00;0.90;;;;;;;;;;6285442;22;20341;-95
2022/10/08 19:12:09;;;;;;;5.80;1.30;;;;;;;;;;6285656;22;20090;-95
2022/10/08 19:15:14;;;;;;;4.25;1.60;;;;;;;;;;6285429;22;20011;-93
2022/10/08 19:18:04;;;;;;;2.33;1.30;;;;;;;;;;6285874;22;20018;-94
2022/10/08 19:20:51;;;;;;;3.80;1.42;;;;;;;;;;6308275;22;20060;-95
2022/10/08 19:23:36;;;;;;;7.38;1.73;;;;;;;;;;6285109;22;20449;-94
2022/10/08 19:26:30;;;;;;;6.75;1.48;;;;;;;;;;6285023;22;20068;-94
2022/10/08 19:29:30;;;;;;;5.70;1.70;;;;;;;;;;6285150;22;20015;-94
2022/10/08 19:32:15;;;;;;;1.77;1.02;;;;;;;;;;6285155;22;20014;-94
2022/10/08 19:35:15;;;;;;;;;;;;;;;;;;;;;
2022/10/08 19:38:33;;;;;;;;;;;;;;;;;;;;;
2022/10/08 19:41:30;;;;;;;8.68;2.10;;;;;;;;;;6308352;22;20072;-94
2022/10/08 19:44:33;;;;;;;;;;;;;;;;;;;;;
2022/10/08 19:47:21;;;;;;;2.55;1.42;;;;;;;;;;6308189;22;20104;-94
2022/10/08 19:50:13;;;;;;;5.35;1.60;;;;;;;;;;6285191;22;20014;-94